sensor_id;sensor_type;location;lat;lon;timestamp;P1;durP1;ratioP1;P2;durP2;ratioP2
6987;SDS011;3534;49.960;8.018;2022-11-15T00:01:26;15.50;;;11.20;;
6987;SDS011;3534;49.960;8.018;2022-11-15T00:03:53;17.33;;;12.43;;
6987;SDS011;3534;49.960;8.018;2022-11-15T00:06:21;18.63;;;11.43;;
6987;SDS011;3534;49.960;8.018;2022-11-15T00:08:48;13.80;;;9.80;;
6987;SDS011;3534;49.960;8.018;2022-11-15T00:11:14;12.30;;;9.40;;
6987;SDS011;3534;49.960;8.018;2022-11-15T00:13:41;11.77;;;8.40;;
6987;SDS011;3534;49.960;8.018;2022-11-15T00:16:08;15.90;;;10.20;;
6987;SDS011;3534;49.960;8.018;2022-11-15T00:18:36;12.90;;;9.00;;
6987;SDS011;3534;49.960;8.018;2022-11-15T00:21:04;16.47;;;10.30;;
6987;SDS011;3534;49.960;8.018;2022-11-15T00:23:33;14.53;;;10.30;;
6987;SDS011;3534;49.960;8.018;2022-11-15T00:26:00;16.87;;;8.90;;
6987;SDS011;3534;49.960;8.018;2022-11-15T00:28:27;12.07;;;9.00;;
6987;SDS011;3534;49.960;8.018;2022-11-15T00:30:59;16.37;;;9.47;;
6987;SDS011;3534;49.960;8.018;2022-11-15T00:33:26;15.23;;;10.00;;
6987;SDS011;3534;49.960;8.018;2022-11-15T00:35:53;14.53;;;10.60;;
6987;SDS011;3534;49.960;8.018;2022-11-15T00:38:19;13.70;;;9.37;;
6987;SDS011;3534;49.960;8.018;2022-11-15T00:40:47;15.17;;;10.70;;
6987;SDS011;3534;49.960;8.018;2022-11-15T00:43:14;14.70;;;9.93;;
6987;SDS011;3534;49.960;8.018;2022-11-15T00:45:41;13.43;;;9.33;;
6987;SDS011;3534;49.960;8.018;2022-11-15T00:48:08;19.90;;;10.10;;
6987;SDS011;3534;49.960;8.018;2022-11-15T00:50:35;13.40;;;10.53;;
6987;SDS011;3534;49.960;8.018;2022-11-15T00:53:02;16.90;;;9.47;;
6987;SDS011;3534;49.960;8.018;2022-11-15T00:55:28;19.43;;;11.47;;
6987;SDS011;3534;49.960;8.018;2022-11-15T00:57:57;15.50;;;9.67;;
6987;SDS011;3534;49.960;8.018;2022-11-15T01:00:23;14.40;;;10.37;;
6987;SDS011;3534;49.960;8.018;2022-11-15T01:02:50;13.57;;;10.43;;
6987;SDS011;3534;49.960;8.018;2022-11-15T01:05:17;13.10;;;9.00;;
6987;SDS011;3534;49.960;8.018;2022-11-15T01:07:44;13.90;;;9.60;;
6987;SDS011;3534;49.960;8.018;2022-11-15T01:10:10;19.67;;;10.87;;
6987;SDS011;3534;49.960;8.018;2022-11-15T01:12:37;14.47;;;10.37;;
6987;SDS011;3534;49.960;8.018;2022-11-15T01:15:06;16.10;;;9.47;;
6987;SDS011;3534;49.960;8.018;2022-11-15T01:17:33;17.60;;;10.53;;
6987;SDS011;3534;49.960;8.018;2022-11-15T01:20:00;19.23;;;9.90;;
6987;SDS011;3534;49.960;8.018;2022-11-15T01:22:27;15.30;;;10.13;;
6987;SDS011;3534;49.960;8.018;2022-11-15T01:24:53;12.67;;;9.90;;
6987;SDS011;3534;49.960;8.018;2022-11-15T01:27:20;17.03;;;9.60;;
6987;SDS011;3534;49.960;8.018;2022-11-15T01:29:47;14.80;;;9.40;;
6987;SDS011;3534;49.960;8.018;2022-11-15T01:32:15;15.10;;;9.50;;
6987;SDS011;3534;49.960;8.018;2022-11-15T01:34:42;16.50;;;10.13;;
6987;SDS011;3534;49.960;8.018;2022-11-15T01:37:08;14.83;;;10.20;;
6987;SDS011;3534;49.960;8.018;2022-11-15T01:39:35;14.00;;;9.50;;
6987;SDS011;3534;49.960;8.018;2022-11-15T01:42:02;13.30;;;9.43;;
6987;SDS011;3534;49.960;8.018;2022-11-15T01:44:34;11.30;;;9.10;;
6987;SDS011;3534;49.960;8.018;2022-11-15T01:47:08;16.20;;;9.80;;
6987;SDS011;3534;49.960;8.018;2022-11-15T01:49:41;15.17;;;10.20;;
6987;SDS011;3534;49.960;8.018;2022-11-15T01:52:15;14.83;;;10.20;;
6987;SDS011;3534;49.960;8.018;2022-11-15T01:54:44;15.47;;;10.50;;
6987;SDS011;3534;49.960;8.018;2022-11-15T01:57:12;13.97;;;9.90;;
6987;SDS011;3534;49.960;8.018;2022-11-15T01:59:40;14.60;;;10.10;;
6987;SDS011;3534;49.960;8.018;2022-11-15T02:02:09;15.27;;;10.47;;
6987;SDS011;3534;49.960;8.018;2022-11-15T02:04:37;17.43;;;11.13;;
6987;SDS011;3534;49.960;8.018;2022-11-15T02:07:08;22.17;;;16.57;;
6987;SDS011;3534;49.960;8.018;2022-11-15T02:09:37;16.63;;;11.60;;
6987;SDS011;3534;49.960;8.018;2022-11-15T02:12:04;19.60;;;12.37;;
6987;SDS011;3534;49.960;8.018;2022-11-15T02:14:33;20.53;;;12.43;;
6987;SDS011;3534;49.960;8.018;2022-11-15T02:17:02;18.00;;;11.70;;
6987;SDS011;3534;49.960;8.018;2022-11-15T02:19:46;22.23;;;11.73;;
6987;SDS011;3534;49.960;8.018;2022-11-15T02:22:42;18.30;;;12.97;;
6987;SDS011;3534;49.960;8.018;2022-11-15T02:25:25;18.17;;;11.03;;
6987;SDS011;3534;49.960;8.018;2022-11-15T02:28:21;18.80;;;11.30;;
6987;SDS011;3534;49.960;8.018;2022-11-15T02:31:05;16.23;;;10.43;;
6987;SDS011;3534;49.960;8.018;2022-11-15T02:33:39;14.97;;;10.40;;
6987;SDS011;3534;49.960;8.018;2022-11-15T02:36:15;12.23;;;8.80;;
6987;SDS011;3534;49.960;8.018;2022-11-15T02:38:51;13.87;;;9.73;;
6987;SDS011;3534;49.960;8.018;2022-11-15T02:41:25;15.30;;;10.07;;
6987;SDS011;3534;49.960;8.018;2022-11-15T02:43:58;17.50;;;10.40;;
6987;SDS011;3534;49.960;8.018;2022-11-15T02:46:29;15.73;;;10.83;;
6987;SDS011;3534;49.960;8.018;2022-11-15T02:49:18;16.73;;;9.87;;
6987;SDS011;3534;49.960;8.018;2022-11-15T02:51:46;15.37;;;9.70;;
6987;SDS011;3534;49.960;8.018;2022-11-15T02:54:33;12.93;;;9.27;;
6987;SDS011;3534;49.960;8.018;2022-11-15T02:57:00;16.17;;;10.70;;
6987;SDS011;3534;49.960;8.018;2022-11-15T02:59:43;14.60;;;8.73;;
6987;SDS011;3534;49.960;8.018;2022-11-15T03:02:39;14.83;;;10.10;;
6987;SDS011;3534;49.960;8.018;2022-11-15T03:05:16;14.70;;;9.03;;
6987;SDS011;3534;49.960;8.018;2022-11-15T03:07:51;16.50;;;9.23;;
6987;SDS011;3534;49.960;8.018;2022-11-15T03:10:24;13.37;;;8.40;;
6987;SDS011;3534;49.960;8.018;2022-11-15T03:12:57;18.13;;;8.50;;
6987;SDS011;3534;49.960;8.018;2022-11-15T03:15:32;11.20;;;8.63;;
6987;SDS011;3534;49.960;8.018;2022-11-15T03:18:06;13.90;;;9.40;;
6987;SDS011;3534;49.960;8.018;2022-11-15T03:20:41;12.33;;;8.80;;
6987;SDS011;3534;49.960;8.018;2022-11-15T03:23:10;13.50;;;8.57;;
6987;SDS011;3534;49.960;8.018;2022-11-15T03:25:38;11.77;;;9.20;;
6987;SDS011;3534;49.960;8.018;2022-11-15T03:28:08;13.30;;;9.00;;
6987;SDS011;3534;49.960;8.018;2022-11-15T03:30:38;13.77;;;9.97;;
6987;SDS011;3534;49.960;8.018;2022-11-15T03:33:07;13.93;;;9.57;;
6987;SDS011;3534;49.960;8.018;2022-11-15T03:35:37;13.83;;;9.93;;
6987;SDS011;3534;49.960;8.018;2022-11-15T03:38:08;10.67;;;8.87;;
6987;SDS011;3534;49.960;8.018;2022-11-15T03:40:42;12.07;;;9.40;;
6987;SDS011;3534;49.960;8.018;2022-11-15T03:43:14;14.77;;;9.80;;
6987;SDS011;3534;49.960;8.018;2022-11-15T03:45:49;12.30;;;9.27;;
6987;SDS011;3534;49.960;8.018;2022-11-15T03:48:23;18.03;;;11.27;;
6987;SDS011;3534;49.960;8.018;2022-11-15T03:50:52;15.03;;;11.03;;
6987;SDS011;3534;49.960;8.018;2022-11-15T03:53:20;12.77;;;9.50;;
6987;SDS011;3534;49.960;8.018;2022-11-15T03:55:47;14.23;;;9.63;;
6987;SDS011;3534;49.960;8.018;2022-11-15T03:58:13;11.40;;;9.00;;
6987;SDS011;3534;49.960;8.018;2022-11-15T04:00:40;16.30;;;8.93;;
6987;SDS011;3534;49.960;8.018;2022-11-15T04:03:07;15.43;;;9.87;;
6987;SDS011;3534;49.960;8.018;2022-11-15T04:05:35;11.70;;;9.30;;
6987;SDS011;3534;49.960;8.018;2022-11-15T04:08:02;15.77;;;9.37;;
6987;SDS011;3534;49.960;8.018;2022-11-15T04:10:29;13.40;;;9.00;;
6987;SDS011;3534;49.960;8.018;2022-11-15T04:12:55;12.70;;;9.63;;
6987;SDS011;3534;49.960;8.018;2022-11-15T04:15:22;16.37;;;9.50;;
6987;SDS011;3534;49.960;8.018;2022-11-15T04:17:50;14.00;;;8.80;;
6987;SDS011;3534;49.960;8.018;2022-11-15T04:20:19;11.27;;;8.50;;
6987;SDS011;3534;49.960;8.018;2022-11-15T04:23:07;10.47;;;8.43;;
6987;SDS011;3534;49.960;8.018;2022-11-15T04:25:54;18.93;;;9.00;;
6987;SDS011;3534;49.960;8.018;2022-11-15T04:28:22;11.27;;;8.83;;
6987;SDS011;3534;49.960;8.018;2022-11-15T04:30:48;13.83;;;8.50;;
6987;SDS011;3534;49.960;8.018;2022-11-15T04:33:15;15.00;;;8.47;;
6987;SDS011;3534;49.960;8.018;2022-11-15T04:35:42;17.03;;;8.23;;
6987;SDS011;3534;49.960;8.018;2022-11-15T04:38:30;9.43;;;7.93;;
6987;SDS011;3534;49.960;8.018;2022-11-15T04:40:56;11.20;;;8.23;;
6987;SDS011;3534;49.960;8.018;2022-11-15T04:43:23;13.73;;;8.17;;
6987;SDS011;3534;49.960;8.018;2022-11-15T04:45:49;14.37;;;8.93;;
6987;SDS011;3534;49.960;8.018;2022-11-15T04:48:16;16.63;;;7.50;;
6987;SDS011;3534;49.960;8.018;2022-11-15T04:50:43;13.90;;;8.37;;
6987;SDS011;3534;49.960;8.018;2022-11-15T04:53:09;13.77;;;8.17;;
6987;SDS011;3534;49.960;8.018;2022-11-15T04:55:37;10.63;;;7.70;;
6987;SDS011;3534;49.960;8.018;2022-11-15T04:58:04;10.83;;;8.03;;
6987;SDS011;3534;49.960;8.018;2022-11-15T05:00:31;11.90;;;8.63;;
6987;SDS011;3534;49.960;8.018;2022-11-15T05:02:57;13.47;;;8.90;;
6987;SDS011;3534;49.960;8.018;2022-11-15T05:05:42;11.53;;;7.80;;
6987;SDS011;3534;49.960;8.018;2022-11-15T05:08:08;14.83;;;8.40;;
6987;SDS011;3534;49.960;8.018;2022-11-15T05:10:35;9.93;;;8.47;;
6987;SDS011;3534;49.960;8.018;2022-11-15T05:13:03;10.73;;;7.77;;
6987;SDS011;3534;49.960;8.018;2022-11-15T05:15:30;14.63;;;8.03;;
6987;SDS011;3534;49.960;8.018;2022-11-15T05:17:57;9.80;;;7.50;;
6987;SDS011;3534;49.960;8.018;2022-11-15T05:20:25;10.57;;;8.00;;
6987;SDS011;3534;49.960;8.018;2022-11-15T05:22:52;16.50;;;7.97;;
6987;SDS011;3534;49.960;8.018;2022-11-15T05:25:19;10.97;;;8.43;;
6987;SDS011;3534;49.960;8.018;2022-11-15T05:27:46;12.30;;;8.00;;
6987;SDS011;3534;49.960;8.018;2022-11-15T05:30:15;10.90;;;7.50;;
6987;SDS011;3534;49.960;8.018;2022-11-15T05:32:42;12.07;;;8.30;;
6987;SDS011;3534;49.960;8.018;2022-11-15T05:35:12;19.00;;;8.93;;
6987;SDS011;3534;49.960;8.018;2022-11-15T05:37:43;13.90;;;9.30;;
6987;SDS011;3534;49.960;8.018;2022-11-15T05:40:10;13.03;;;10.43;;
6987;SDS011;3534;49.960;8.018;2022-11-15T05:42:36;13.90;;;10.63;;
6987;SDS011;3534;49.960;8.018;2022-11-15T05:45:04;15.13;;;9.73;;
6987;SDS011;3534;49.960;8.018;2022-11-15T05:47:35;10.60;;;8.67;;
6987;SDS011;3534;49.960;8.018;2022-11-15T05:50:04;13.00;;;9.20;;
6987;SDS011;3534;49.960;8.018;2022-11-15T05:52:33;12.23;;;9.57;;
6987;SDS011;3534;49.960;8.018;2022-11-15T05:55:02;13.20;;;9.27;;
6987;SDS011;3534;49.960;8.018;2022-11-15T05:57:30;15.60;;;9.30;;
6987;SDS011;3534;49.960;8.018;2022-11-15T05:59:57;12.87;;;9.10;;
6987;SDS011;3534;49.960;8.018;2022-11-15T06:02:24;10.57;;;8.80;;
6987;SDS011;3534;49.960;8.018;2022-11-15T06:04:52;12.17;;;8.93;;
6987;SDS011;3534;49.960;8.018;2022-11-15T06:07:19;12.87;;;8.87;;
6987;SDS011;3534;49.960;8.018;2022-11-15T06:09:46;10.37;;;7.73;;
6987;SDS011;3534;49.960;8.018;2022-11-15T06:12:12;9.80;;;8.47;;
6987;SDS011;3534;49.960;8.018;2022-11-15T06:14:39;17.53;;;10.53;;
6987;SDS011;3534;49.960;8.018;2022-11-15T06:17:06;10.70;;;8.30;;
6987;SDS011;3534;49.960;8.018;2022-11-15T06:19:33;15.40;;;13.00;;
6987;SDS011;3534;49.960;8.018;2022-11-15T06:22:01;12.50;;;8.87;;
6987;SDS011;3534;49.960;8.018;2022-11-15T06:24:27;19.00;;;11.67;;
6987;SDS011;3534;49.960;8.018;2022-11-15T06:26:54;16.53;;;12.50;;
6987;SDS011;3534;49.960;8.018;2022-11-15T06:29:22;27.43;;;12.63;;
6987;SDS011;3534;49.960;8.018;2022-11-15T06:31:49;19.27;;;11.03;;
6987;SDS011;3534;49.960;8.018;2022-11-15T06:34:15;21.30;;;12.90;;
6987;SDS011;3534;49.960;8.018;2022-11-15T06:36:42;19.30;;;12.23;;
6987;SDS011;3534;49.960;8.018;2022-11-15T06:39:10;18.60;;;11.00;;
6987;SDS011;3534;49.960;8.018;2022-11-15T06:41:37;15.87;;;11.17;;
6987;SDS011;3534;49.960;8.018;2022-11-15T06:44:04;15.20;;;10.30;;
6987;SDS011;3534;49.960;8.018;2022-11-15T06:46:30;18.03;;;11.10;;
6987;SDS011;3534;49.960;8.018;2022-11-15T06:48:57;21.37;;;12.33;;
6987;SDS011;3534;49.960;8.018;2022-11-15T06:51:24;22.33;;;13.70;;
6987;SDS011;3534;49.960;8.018;2022-11-15T06:53:50;21.17;;;12.33;;
6987;SDS011;3534;49.960;8.018;2022-11-15T06:56:18;21.83;;;12.40;;
6987;SDS011;3534;49.960;8.018;2022-11-15T06:58:45;29.83;;;15.17;;
6987;SDS011;3534;49.960;8.018;2022-11-15T07:01:12;30.23;;;16.20;;
6987;SDS011;3534;49.960;8.018;2022-11-15T07:03:40;27.20;;;15.27;;
6987;SDS011;3534;49.960;8.018;2022-11-15T07:06:08;33.30;;;15.93;;
6987;SDS011;3534;49.960;8.018;2022-11-15T07:08:35;35.00;;;18.83;;
6987;SDS011;3534;49.960;8.018;2022-11-15T07:11:03;28.60;;;17.43;;
6987;SDS011;3534;49.960;8.018;2022-11-15T07:13:34;31.10;;;17.50;;
6987;SDS011;3534;49.960;8.018;2022-11-15T07:16:02;33.73;;;18.03;;
6987;SDS011;3534;49.960;8.018;2022-11-15T07:18:30;34.20;;;18.70;;
6987;SDS011;3534;49.960;8.018;2022-11-15T07:21:00;36.23;;;19.63;;
6987;SDS011;3534;49.960;8.018;2022-11-15T07:23:27;31.23;;;18.33;;
6987;SDS011;3534;49.960;8.018;2022-11-15T07:25:55;39.33;;;20.50;;
6987;SDS011;3534;49.960;8.018;2022-11-15T07:28:23;42.30;;;22.07;;
6987;SDS011;3534;49.960;8.018;2022-11-15T07:30:51;194.10;;;99.13;;
6987;SDS011;3534;49.960;8.018;2022-11-15T07:33:18;96.87;;;48.47;;
6987;SDS011;3534;49.960;8.018;2022-11-15T07:35:44;91.80;;;46.93;;
6987;SDS011;3534;49.960;8.018;2022-11-15T07:38:14;63.83;;;34.80;;
6987;SDS011;3534;49.960;8.018;2022-11-15T07:40:44;57.30;;;32.93;;
6987;SDS011;3534;49.960;8.018;2022-11-15T07:43:11;47.60;;;28.80;;
6987;SDS011;3534;49.960;8.018;2022-11-15T07:45:40;44.33;;;25.67;;
6987;SDS011;3534;49.960;8.018;2022-11-15T07:48:09;41.87;;;20.33;;
6987;SDS011;3534;49.960;8.018;2022-11-15T07:50:36;19.10;;;11.67;;
6987;SDS011;3534;49.960;8.018;2022-11-15T07:53:03;18.50;;;13.27;;
6987;SDS011;3534;49.960;8.018;2022-11-15T07:55:30;16.47;;;11.83;;
6987;SDS011;3534;49.960;8.018;2022-11-15T07:58:00;21.20;;;14.97;;
6987;SDS011;3534;49.960;8.018;2022-11-15T08:00:27;21.50;;;15.23;;
6987;SDS011;3534;49.960;8.018;2022-11-15T08:03:00;30.53;;;15.13;;
6987;SDS011;3534;49.960;8.018;2022-11-15T08:05:29;23.07;;;14.20;;
6987;SDS011;3534;49.960;8.018;2022-11-15T08:07:56;35.43;;;18.97;;
6987;SDS011;3534;49.960;8.018;2022-11-15T08:10:23;36.30;;;23.93;;
6987;SDS011;3534;49.960;8.018;2022-11-15T08:12:56;27.03;;;16.80;;
6987;SDS011;3534;49.960;8.018;2022-11-15T08:15:23;22.27;;;16.40;;
6987;SDS011;3534;49.960;8.018;2022-11-15T08:17:53;31.87;;;20.30;;
6987;SDS011;3534;49.960;8.018;2022-11-15T08:20:20;25.77;;;15.93;;
6987;SDS011;3534;49.960;8.018;2022-11-15T08:22:48;24.43;;;16.60;;
6987;SDS011;3534;49.960;8.018;2022-11-15T08:25:15;17.87;;;13.33;;
6987;SDS011;3534;49.960;8.018;2022-11-15T08:27:42;23.63;;;15.20;;
6987;SDS011;3534;49.960;8.018;2022-11-15T08:30:10;33.80;;;18.70;;
6987;SDS011;3534;49.960;8.018;2022-11-15T08:32:38;28.93;;;17.30;;
6987;SDS011;3534;49.960;8.018;2022-11-15T08:35:05;25.07;;;16.43;;
6987;SDS011;3534;49.960;8.018;2022-11-15T08:37:33;31.40;;;19.23;;
6987;SDS011;3534;49.960;8.018;2022-11-15T08:40:01;26.80;;;18.43;;
6987;SDS011;3534;49.960;8.018;2022-11-15T08:42:28;23.20;;;15.60;;
6987;SDS011;3534;49.960;8.018;2022-11-15T08:44:55;28.70;;;16.07;;
6987;SDS011;3534;49.960;8.018;2022-11-15T08:47:22;24.67;;;15.70;;
6987;SDS011;3534;49.960;8.018;2022-11-15T08:49:49;27.13;;;15.80;;
6987;SDS011;3534;49.960;8.018;2022-11-15T08:52:15;23.90;;;16.20;;
6987;SDS011;3534;49.960;8.018;2022-11-15T08:54:42;23.27;;;15.40;;
6987;SDS011;3534;49.960;8.018;2022-11-15T08:57:10;27.17;;;14.70;;
6987;SDS011;3534;49.960;8.018;2022-11-15T08:59:37;23.40;;;14.97;;
6987;SDS011;3534;49.960;8.018;2022-11-15T09:02:04;20.60;;;13.87;;
6987;SDS011;3534;49.960;8.018;2022-11-15T09:04:31;17.97;;;12.03;;
6987;SDS011;3534;49.960;8.018;2022-11-15T09:06:58;20.27;;;12.47;;
6987;SDS011;3534;49.960;8.018;2022-11-15T09:09:25;18.63;;;13.10;;
6987;SDS011;3534;49.960;8.018;2022-11-15T09:11:52;17.90;;;12.10;;
6987;SDS011;3534;49.960;8.018;2022-11-15T09:14:20;17.20;;;10.57;;
6987;SDS011;3534;49.960;8.018;2022-11-15T09:16:46;16.43;;;10.77;;
6987;SDS011;3534;49.960;8.018;2022-11-15T09:19:13;16.77;;;11.07;;
6987;SDS011;3534;49.960;8.018;2022-11-15T09:21:40;14.20;;;10.47;;
6987;SDS011;3534;49.960;8.018;2022-11-15T09:24:07;21.30;;;10.83;;
6987;SDS011;3534;49.960;8.018;2022-11-15T09:26:34;15.83;;;11.30;;
6987;SDS011;3534;49.960;8.018;2022-11-15T09:29:00;15.70;;;10.97;;
6987;SDS011;3534;49.960;8.018;2022-11-15T09:31:29;15.30;;;11.43;;
6987;SDS011;3534;49.960;8.018;2022-11-15T09:33:56;19.60;;;12.30;;
6987;SDS011;3534;49.960;8.018;2022-11-15T09:36:23;17.53;;;12.37;;
6987;SDS011;3534;49.960;8.018;2022-11-15T09:38:50;18.63;;;12.27;;
6987;SDS011;3534;49.960;8.018;2022-11-15T09:44:34;19.20;;;12.07;;
6987;SDS011;3534;49.960;8.018;2022-11-15T09:47:15;19.17;;;12.07;;
6987;SDS011;3534;49.960;8.018;2022-11-15T09:50:08;22.93;;;12.37;;
6987;SDS011;3534;49.960;8.018;2022-11-15T09:52:36;20.30;;;10.50;;
6987;SDS011;3534;49.960;8.018;2022-11-15T09:55:07;15.63;;;11.63;;
6987;SDS011;3534;49.960;8.018;2022-11-15T09:57:37;15.73;;;10.70;;
6987;SDS011;3534;49.960;8.018;2022-11-15T10:00:09;16.93;;;12.50;;
6987;SDS011;3534;49.960;8.018;2022-11-15T10:02:46;12.40;;;9.37;;
6987;SDS011;3534;49.960;8.018;2022-11-15T10:05:23;15.27;;;10.53;;
6987;SDS011;3534;49.960;8.018;2022-11-15T10:07:56;16.60;;;10.10;;
6987;SDS011;3534;49.960;8.018;2022-11-15T10:10:29;20.33;;;10.40;;
6987;SDS011;3534;49.960;8.018;2022-11-15T10:13:01;12.60;;;9.40;;
6987;SDS011;3534;49.960;8.018;2022-11-15T10:15:29;15.77;;;10.20;;
6987;SDS011;3534;49.960;8.018;2022-11-15T10:18:05;13.23;;;9.50;;
6987;SDS011;3534;49.960;8.018;2022-11-15T10:20:42;17.20;;;9.60;;
6987;SDS011;3534;49.960;8.018;2022-11-15T10:23:14;15.70;;;9.80;;
6987;SDS011;3534;49.960;8.018;2022-11-15T10:25:43;14.70;;;9.57;;
6987;SDS011;3534;49.960;8.018;2022-11-15T10:28:11;17.60;;;10.67;;
6987;SDS011;3534;49.960;8.018;2022-11-15T10:30:43;15.10;;;11.43;;
6987;SDS011;3534;49.960;8.018;2022-11-15T10:33:20;16.47;;;10.40;;
6987;SDS011;3534;49.960;8.018;2022-11-15T10:38:51;14.50;;;9.90;;
6987;SDS011;3534;49.960;8.018;2022-11-15T10:41:21;15.90;;;9.73;;
6987;SDS011;3534;49.960;8.018;2022-11-15T10:44:01;15.10;;;11.13;;
6987;SDS011;3534;49.960;8.018;2022-11-15T10:46:34;13.27;;;10.27;;
6987;SDS011;3534;49.960;8.018;2022-11-15T10:49:11;19.90;;;12.13;;
6987;SDS011;3534;49.960;8.018;2022-11-15T10:51:41;17.23;;;10.47;;
6987;SDS011;3534;49.960;8.018;2022-11-15T10:54:10;19.33;;;10.80;;
6987;SDS011;3534;49.960;8.018;2022-11-15T10:56:40;17.83;;;11.67;;
6987;SDS011;3534;49.960;8.018;2022-11-15T10:59:14;17.77;;;12.67;;
6987;SDS011;3534;49.960;8.018;2022-11-15T11:01:47;18.90;;;12.67;;
6987;SDS011;3534;49.960;8.018;2022-11-15T11:04:16;22.97;;;13.30;;
6987;SDS011;3534;49.960;8.018;2022-11-15T11:06:47;17.10;;;10.37;;
6987;SDS011;3534;49.960;8.018;2022-11-15T11:09:28;14.57;;;11.10;;
6987;SDS011;3534;49.960;8.018;2022-11-15T11:11:58;15.40;;;10.90;;
6987;SDS011;3534;49.960;8.018;2022-11-15T11:14:26;17.17;;;12.60;;
6987;SDS011;3534;49.960;8.018;2022-11-15T11:16:57;18.70;;;11.00;;
6987;SDS011;3534;49.960;8.018;2022-11-15T11:19:37;15.40;;;8.53;;
6987;SDS011;3534;49.960;8.018;2022-11-15T11:22:13;10.73;;;7.77;;
6987;SDS011;3534;49.960;8.018;2022-11-15T11:24:47;7.37;;;4.50;;
6987;SDS011;3534;49.960;8.018;2022-11-15T11:27:36;4.43;;;3.60;;
6987;SDS011;3534;49.960;8.018;2022-11-15T11:30:10;9.47;;;4.83;;
6987;SDS011;3534;49.960;8.018;2022-11-15T11:32:54;9.30;;;4.13;;
6987;SDS011;3534;49.960;8.018;2022-11-15T11:35:29;8.47;;;4.90;;
6987;SDS011;3534;49.960;8.018;2022-11-15T11:38:03;13.10;;;5.53;;
6987;SDS011;3534;49.960;8.018;2022-11-15T11:40:44;7.50;;;6.00;;
6987;SDS011;3534;49.960;8.018;2022-11-15T11:43:19;8.00;;;6.20;;
6987;SDS011;3534;49.960;8.018;2022-11-15T11:45:58;9.60;;;7.03;;
6987;SDS011;3534;49.960;8.018;2022-11-15T11:48:45;7.80;;;6.07;;
6987;SDS011;3534;49.960;8.018;2022-11-15T11:51:18;9.50;;;6.87;;
6987;SDS011;3534;49.960;8.018;2022-11-15T11:53:50;9.47;;;6.40;;
6987;SDS011;3534;49.960;8.018;2022-11-15T11:56:23;6.67;;;5.50;;
6987;SDS011;3534;49.960;8.018;2022-11-15T11:58:54;9.73;;;6.10;;
6987;SDS011;3534;49.960;8.018;2022-11-15T12:01:25;8.73;;;5.33;;
6987;SDS011;3534;49.960;8.018;2022-11-15T12:03:57;8.67;;;6.30;;
6987;SDS011;3534;49.960;8.018;2022-11-15T12:06:33;7.83;;;6.50;;
6987;SDS011;3534;49.960;8.018;2022-11-15T12:09:06;9.60;;;6.50;;
6987;SDS011;3534;49.960;8.018;2022-11-15T12:11:43;12.33;;;5.77;;
6987;SDS011;3534;49.960;8.018;2022-11-15T12:14:23;8.20;;;5.50;;
6987;SDS011;3534;49.960;8.018;2022-11-15T12:16:54;8.73;;;5.93;;
6987;SDS011;3534;49.960;8.018;2022-11-15T12:19:22;9.20;;;5.50;;
6987;SDS011;3534;49.960;8.018;2022-11-15T12:21:53;9.90;;;6.30;;
6987;SDS011;3534;49.960;8.018;2022-11-15T12:24:26;6.87;;;6.17;;
6987;SDS011;3534;49.960;8.018;2022-11-15T12:26:59;7.13;;;4.50;;
6987;SDS011;3534;49.960;8.018;2022-11-15T12:29:31;6.50;;;5.13;;
6987;SDS011;3534;49.960;8.018;2022-11-15T12:32:02;7.47;;;5.40;;
6987;SDS011;3534;49.960;8.018;2022-11-15T12:34:43;8.20;;;5.30;;
6987;SDS011;3534;49.960;8.018;2022-11-15T12:40:35;8.40;;;6.00;;
6987;SDS011;3534;49.960;8.018;2022-11-15T12:46:03;7.53;;;5.70;;
6987;SDS011;3534;49.960;8.018;2022-11-15T12:57:36;7.10;;;4.57;;
6987;SDS011;3534;49.960;8.018;2022-11-15T13:03:25;6.87;;;4.67;;
6987;SDS011;3534;49.960;8.018;2022-11-15T13:05:55;5.73;;;4.30;;
6987;SDS011;3534;49.960;8.018;2022-11-15T13:08:40;6.87;;;4.83;;
6987;SDS011;3534;49.960;8.018;2022-11-15T13:17:15;8.23;;;4.73;;
6987;SDS011;3534;49.960;8.018;2022-11-15T13:19:57;5.47;;;4.60;;
6987;SDS011;3534;49.960;8.018;2022-11-15T13:22:42;8.17;;;5.13;;
6987;SDS011;3534;49.960;8.018;2022-11-15T13:25:18;6.90;;;5.30;;
6987;SDS011;3534;49.960;8.018;2022-11-15T13:27:50;8.90;;;5.40;;
6987;SDS011;3534;49.960;8.018;2022-11-15T13:30:21;10.43;;;5.70;;
6987;SDS011;3534;49.960;8.018;2022-11-15T13:32:48;5.47;;;4.50;;
6987;SDS011;3534;49.960;8.018;2022-11-15T13:35:20;7.67;;;5.40;;
6987;SDS011;3534;49.960;8.018;2022-11-15T13:37:48;7.30;;;6.00;;
6987;SDS011;3534;49.960;8.018;2022-11-15T13:40:20;13.33;;;9.53;;
6987;SDS011;3534;49.960;8.018;2022-11-15T13:42:52;16.87;;;11.10;;
6987;SDS011;3534;49.960;8.018;2022-11-15T13:45:21;9.20;;;5.50;;
6987;SDS011;3534;49.960;8.018;2022-11-15T13:47:51;9.87;;;6.00;;
6987;SDS011;3534;49.960;8.018;2022-11-15T13:50:20;8.17;;;6.17;;
6987;SDS011;3534;49.960;8.018;2022-11-15T13:52:50;14.20;;;7.90;;
6987;SDS011;3534;49.960;8.018;2022-11-15T13:55:20;14.73;;;10.27;;
6987;SDS011;3534;49.960;8.018;2022-11-15T13:57:48;9.97;;;6.10;;
6987;SDS011;3534;49.960;8.018;2022-11-15T14:02:56;7.07;;;5.30;;
6987;SDS011;3534;49.960;8.018;2022-11-15T14:05:31;8.17;;;5.80;;
6987;SDS011;3534;49.960;8.018;2022-11-15T14:07:58;9.17;;;6.80;;
6987;SDS011;3534;49.960;8.018;2022-11-15T14:10:28;10.20;;;6.70;;
6987;SDS011;3534;49.960;8.018;2022-11-15T14:12:56;10.40;;;5.60;;
6987;SDS011;3534;49.960;8.018;2022-11-15T14:15:25;8.40;;;5.50;;
6987;SDS011;3534;49.960;8.018;2022-11-15T14:17:56;15.70;;;5.67;;
6987;SDS011;3534;49.960;8.018;2022-11-15T14:20:27;8.37;;;6.20;;
6987;SDS011;3534;49.960;8.018;2022-11-15T14:22:57;6.37;;;5.03;;
6987;SDS011;3534;49.960;8.018;2022-11-15T14:25:25;12.70;;;5.57;;
6987;SDS011;3534;49.960;8.018;2022-11-15T14:28:15;7.13;;;5.60;;
6987;SDS011;3534;49.960;8.018;2022-11-15T14:30:57;8.50;;;5.57;;
6987;SDS011;3534;49.960;8.018;2022-11-15T14:33:25;9.77;;;5.90;;
6987;SDS011;3534;49.960;8.018;2022-11-15T14:35:55;12.80;;;7.27;;
6987;SDS011;3534;49.960;8.018;2022-11-15T14:38:23;9.87;;;6.27;;
6987;SDS011;3534;49.960;8.018;2022-11-15T14:40:50;10.10;;;6.33;;
6987;SDS011;3534;49.960;8.018;2022-11-15T14:43:18;8.77;;;5.60;;
6987;SDS011;3534;49.960;8.018;2022-11-15T14:45:45;9.30;;;5.60;;
6987;SDS011;3534;49.960;8.018;2022-11-15T14:48:13;11.63;;;6.87;;
6987;SDS011;3534;49.960;8.018;2022-11-15T14:50:40;6.07;;;5.37;;
6987;SDS011;3534;49.960;8.018;2022-11-15T14:53:10;7.20;;;5.40;;
6987;SDS011;3534;49.960;8.018;2022-11-15T14:55:42;7.30;;;5.93;;
6987;SDS011;3534;49.960;8.018;2022-11-15T14:58:15;13.30;;;6.27;;
6987;SDS011;3534;49.960;8.018;2022-11-15T15:00:55;6.77;;;5.90;;
6987;SDS011;3534;49.960;8.018;2022-11-15T15:03:23;10.53;;;6.23;;
6987;SDS011;3534;49.960;8.018;2022-11-15T15:05:50;10.13;;;5.83;;
6987;SDS011;3534;49.960;8.018;2022-11-15T15:08:16;13.33;;;6.40;;
6987;SDS011;3534;49.960;8.018;2022-11-15T15:10:44;12.67;;;6.50;;
6987;SDS011;3534;49.960;8.018;2022-11-15T15:13:15;6.43;;;5.30;;
6987;SDS011;3534;49.960;8.018;2022-11-15T15:15:43;9.90;;;6.97;;
6987;SDS011;3534;49.960;8.018;2022-11-15T15:18:10;10.80;;;8.80;;
6987;SDS011;3534;49.960;8.018;2022-11-15T15:20:39;8.73;;;6.90;;
6987;SDS011;3534;49.960;8.018;2022-11-15T15:23:08;10.20;;;5.20;;
6987;SDS011;3534;49.960;8.018;2022-11-15T15:25:40;9.77;;;6.47;;
6987;SDS011;3534;49.960;8.018;2022-11-15T15:28:08;8.30;;;5.23;;
6987;SDS011;3534;49.960;8.018;2022-11-15T15:30:35;6.53;;;5.20;;
6987;SDS011;3534;49.960;8.018;2022-11-15T15:33:02;7.03;;;4.90;;
6987;SDS011;3534;49.960;8.018;2022-11-15T15:35:29;9.20;;;5.93;;
6987;SDS011;3534;49.960;8.018;2022-11-15T15:37:59;10.57;;;5.20;;
6987;SDS011;3534;49.960;8.018;2022-11-15T15:40:27;9.23;;;6.93;;
6987;SDS011;3534;49.960;8.018;2022-11-15T15:42:55;5.17;;;4.60;;
6987;SDS011;3534;49.960;8.018;2022-11-15T15:45:22;6.10;;;4.90;;
6987;SDS011;3534;49.960;8.018;2022-11-15T15:47:48;8.00;;;5.30;;
6987;SDS011;3534;49.960;8.018;2022-11-15T15:50:20;10.90;;;5.90;;